createdAt,value
2023-01-26T00:00:02.955Z,92.72
2023-01-26T00:02:30.588Z,98.88
2023-01-26T00:04:58.070Z,109.93
2023-01-26T00:07:31.801Z,96.40
2023-01-26T00:10:03.262Z,98.15
2023-01-26T00:12:33.901Z,104.03
2023-01-26T00:17:33.620Z,92.65
2023-01-26T00:20:01.086Z,95.97
2023-01-26T00:22:29.058Z,92.18
2023-01-26T00:25:04.536Z,98.30
2023-01-26T00:27:34.458Z,105.35
2023-01-26T00:30:09.530Z,99.90
2023-01-26T00:32:40.161Z,98.30
2023-01-26T00:35:12.378Z,102.10
2023-01-26T00:37:43.060Z,100.38
2023-01-26T00:40:11.622Z,101.35
2023-01-26T00:42:40.162Z,89.60
2023-01-26T00:45:12.493Z,95.82
2023-01-26T00:47:40.640Z,99.18
2023-01-26T00:50:10.539Z,98.28
2023-01-26T00:52:45.456Z,98.15
2023-01-26T00:55:15.910Z,96.70
2023-01-26T00:57:46.466Z,101.97
2023-01-26T01:00:28.992Z,87.78
2023-01-26T01:02:59.759Z,87.63
2023-01-26T01:05:29.557Z,95.22
2023-01-26T01:07:58.694Z,110.38
2023-01-26T01:10:32.098Z,95.63
2023-01-26T01:13:01.807Z,85.88
2023-01-26T01:15:32.613Z,90.93
2023-01-26T01:18:02.207Z,91.97
2023-01-26T01:20:31.674Z,98.22
2023-01-26T01:23:00.923Z,99.00
2023-01-26T01:25:28.513Z,92.78
2023-01-26T01:28:03.620Z,96.07
2023-01-26T01:30:30.589Z,104.20
2023-01-26T01:33:00.432Z,93.65
2023-01-26T01:35:30.770Z,91.05
2023-01-26T01:37:58.399Z,95.03
2023-01-26T01:40:25.858Z,90.82
2023-01-26T01:42:58.438Z,96.43
2023-01-26T01:45:46.276Z,90.97
2023-01-26T01:48:25.220Z,90.40
2023-01-26T01:51:00.983Z,90.32
2023-01-26T01:53:38.107Z,87.82
2023-01-26T01:56:16.096Z,96.85
2023-01-26T01:58:43.541Z,94.18
2023-01-26T02:01:16.846Z,86.28
2023-01-26T02:03:58.008Z,89.70
2023-01-26T02:06:42.409Z,83.82
2023-01-26T02:09:37.942Z,82.40
2023-01-26T02:12:07.947Z,85.75
2023-01-26T02:14:36.141Z,84.85
2023-01-26T02:17:04.155Z,82.40
2023-01-26T02:20:07.796Z,84.85
2023-01-26T02:23:02.468Z,95.03
2023-01-26T02:25:29.181Z,107.15
2023-01-26T02:27:58.178Z,96.28
2023-01-26T02:30:27.239Z,101.53
2023-01-26T02:32:56.674Z,93.75
2023-01-26T02:35:24.757Z,100.93
2023-01-26T02:37:53.938Z,100.47
2023-01-26T02:40:44.811Z,93.65
2023-01-26T02:45:41.931Z,88.03
2023-01-26T02:48:16.486Z,99.55
2023-01-26T02:50:47.260Z,99.78
2023-01-26T02:53:15.900Z,88.25
2023-01-26T02:55:45.448Z,105.75
2023-01-26T02:58:15.438Z,92.50
2023-01-26T03:00:44.025Z,101.80
2023-01-26T03:03:16.112Z,101.78
2023-01-26T03:05:48.565Z,105.97
2023-01-26T03:08:22.399Z,100.80
2023-01-26T03:10:53.353Z,105.72
2023-01-26T03:13:22.504Z,108.05
2023-01-26T03:15:57.509Z,106.57
2023-01-26T03:18:45.344Z,97.05
2023-01-26T03:21:34.821Z,110.60
2023-01-26T03:24:22.495Z,104.93
2023-01-26T03:27:09.096Z,107.78
2023-01-26T03:29:38.738Z,104.90
2023-01-26T03:32:10.576Z,124.07
2023-01-26T03:34:41.404Z,109.97
2023-01-26T03:37:15.823Z,111.30
2023-01-26T03:40:04.587Z,113.00
2023-01-26T03:42:50.367Z,108.20
2023-01-26T03:45:36.142Z,107.47
2023-01-26T03:48:23.816Z,103.53
2023-01-26T03:51:10.734Z,116.45
2023-01-26T03:53:57.093Z,119.75
2023-01-26T03:56:33.112Z,121.68
2023-01-26T03:59:14.089Z,134.27
2023-01-26T04:04:50.451Z,129.00
2023-01-26T04:07:41.795Z,129.13
2023-01-26T04:10:16.926Z,127.57
2023-01-26T04:12:43.489Z,129.48
2023-01-26T04:15:35.959Z,143.95
2023-01-26T04:18:28.114Z,145.38
2023-01-26T04:21:13.754Z,145.15
2023-01-26T04:23:43.142Z,154.73
2023-01-26T04:26:10.813Z,151.02
2023-01-26T04:28:40.457Z,151.70
2023-01-26T04:31:11.761Z,163.80
2023-01-26T04:33:40.515Z,148.88
2023-01-26T04:36:20.939Z,165.65
2023-01-26T04:38:54.014Z,158.27
2023-01-26T04:41:23.153Z,169.40
2023-01-26T04:43:56.286Z,156.07
2023-01-26T04:46:29.340Z,158.73
2023-01-26T04:48:57.566Z,159.30
2023-01-26T04:51:25.560Z,143.65
2023-01-26T04:54:03.539Z,145.38
2023-01-26T04:56:38.795Z,169.80
2023-01-26T04:59:11.102Z,158.32
2023-01-26T05:01:37.882Z,145.43
2023-01-26T05:04:05.164Z,145.35
2023-01-26T05:06:31.903Z,153.52
2023-01-26T05:08:58.869Z,146.98
2023-01-26T05:11:25.769Z,140.35
2023-01-26T05:13:52.285Z,135.82
2023-01-26T05:16:19.890Z,135.80
2023-01-26T05:18:47.570Z,136.98
2023-01-26T05:21:14.618Z,131.88
2023-01-26T05:23:42.985Z,134.55
2023-01-26T05:26:09.387Z,130.05
2023-01-26T05:28:36.257Z,125.28
2023-01-26T05:31:02.733Z,118.70
2023-01-26T05:33:29.274Z,131.18
2023-01-26T05:35:55.685Z,123.45
2023-01-26T05:38:22.354Z,128.80
2023-01-26T05:40:48.830Z,124.95
2023-01-26T05:43:15.319Z,126.28
2023-01-26T05:45:44.873Z,110.15
2023-01-26T05:48:11.377Z,115.63
2023-01-26T05:50:37.841Z,114.75
2023-01-26T05:53:04.396Z,133.40
2023-01-26T05:55:30.825Z,124.05
2023-01-26T05:57:57.253Z,115.18
2023-01-26T06:00:24.007Z,108.70
2023-01-26T06:02:50.502Z,111.63
2023-01-26T06:05:17.003Z,118.97
2023-01-26T06:07:43.603Z,112.88
2023-01-26T06:10:10.916Z,107.95
2023-01-26T06:12:38.597Z,110.93
2023-01-26T06:15:06.203Z,113.05
2023-01-26T06:17:32.720Z,117.97
2023-01-26T06:19:59.167Z,101.15
2023-01-26T06:22:25.600Z,111.00
2023-01-26T06:24:52.023Z,110.00
2023-01-26T06:27:18.648Z,98.40
2023-01-26T06:29:45.703Z,97.55
2023-01-26T06:32:13.512Z,97.70
2023-01-26T06:34:40.025Z,100.82
2023-01-26T06:37:07.448Z,110.53
2023-01-26T06:39:33.931Z,87.22
2023-01-26T06:42:00.371Z,88.90
2023-01-26T06:44:26.861Z,86.47
2023-01-26T06:46:53.290Z,88.70
2023-01-26T06:49:19.881Z,82.63
2023-01-26T06:51:57.489Z,91.20
2023-01-26T06:54:24.229Z,81.22
2023-01-26T06:56:50.677Z,90.60
2023-01-26T06:59:17.161Z,97.25
2023-01-26T07:01:47.120Z,87.10
2023-01-26T07:04:13.555Z,78.17
2023-01-26T07:06:40.026Z,89.38
2023-01-26T07:09:06.560Z,84.55
2023-01-26T07:11:33.020Z,97.88
2023-01-26T07:13:59.776Z,85.13
2023-01-26T07:16:26.329Z,82.68
2023-01-26T07:18:54.707Z,94.78
2023-01-26T07:21:22.939Z,87.72
2023-01-26T07:23:50.662Z,87.18
2023-01-26T07:26:17.307Z,91.95
2023-01-26T07:28:45.393Z,91.97
2023-01-26T07:31:12.709Z,86.60
2023-01-26T07:33:39.476Z,78.22
2023-01-26T07:36:06.483Z,81.80
2023-01-26T07:38:33.727Z,76.57
2023-01-26T07:41:05.421Z,81.47
2023-01-26T07:43:33.706Z,76.78
2023-01-26T07:46:00.145Z,80.63
2023-01-26T07:48:26.722Z,78.20
2023-01-26T07:50:53.141Z,75.65
2023-01-26T07:53:19.613Z,74.85
2023-01-26T07:55:46.878Z,79.15
2023-01-26T07:58:13.476Z,74.78
2023-01-26T08:00:40.011Z,73.82
2023-01-26T08:03:06.564Z,69.60
2023-01-26T08:05:33.541Z,65.38
2023-01-26T08:08:00.423Z,70.55
2023-01-26T08:10:31.617Z,75.80
2023-01-26T08:13:01.639Z,73.13
2023-01-26T08:15:28.748Z,83.68
2023-01-26T08:17:55.373Z,77.20
2023-01-26T08:20:22.320Z,80.20
2023-01-26T08:22:48.796Z,83.10
2023-01-26T08:25:15.345Z,83.93
2023-01-26T08:27:41.841Z,80.57
2023-01-26T08:30:09.217Z,81.47
2023-01-26T08:32:35.923Z,87.35
2023-01-26T08:35:02.347Z,79.75
2023-01-26T08:37:28.818Z,89.43
2023-01-26T08:39:55.321Z,79.22
2023-01-26T08:42:22.760Z,78.13
2023-01-26T08:44:49.322Z,80.03
2023-01-26T08:47:15.793Z,79.95
2023-01-26T08:49:42.192Z,77.43
2023-01-26T08:52:08.724Z,77.30
2023-01-26T08:54:35.287Z,87.15
2023-01-26T08:57:01.785Z,83.38
2023-01-26T08:59:28.281Z,81.88
2023-01-26T09:01:55.682Z,87.88
2023-01-26T09:04:22.313Z,90.35
2023-01-26T09:06:48.827Z,84.75
2023-01-26T09:09:15.614Z,96.07
2023-01-26T09:11:42.255Z,92.47
2023-01-26T09:14:08.714Z,87.97
2023-01-26T09:16:35.318Z,93.15
2023-01-26T09:19:02.140Z,84.18
2023-01-26T09:21:28.600Z,88.85
2023-01-26T09:23:56.571Z,80.78
2023-01-26T09:26:23.156Z,84.40
2023-01-26T09:28:51.588Z,92.18
2023-01-26T09:31:18.196Z,86.15
2023-01-26T09:33:45.367Z,99.97
2023-01-26T09:36:13.262Z,90.80
2023-01-26T09:38:40.256Z,98.93
2023-01-26T09:41:28.613Z,100.70
2023-01-26T09:43:57.629Z,86.35
2023-01-26T09:46:28.203Z,96.13
2023-01-26T09:49:10.128Z,99.10
2023-01-26T09:51:38.405Z,93.10
2023-01-26T09:54:29.741Z,86.35
2023-01-26T09:56:56.383Z,86.22
2023-01-26T09:59:32.003Z,93.80
2023-01-26T10:02:20.497Z,76.47
2023-01-26T10:04:50.781Z,85.88
2023-01-26T10:07:17.306Z,84.40
2023-01-26T10:09:47.744Z,72.38
2023-01-26T10:12:30.540Z,89.07
2023-01-26T10:15:11.480Z,88.20
2023-01-26T10:20:33.596Z,67.50
2023-01-26T10:23:30.284Z,71.45
2023-01-26T10:26:06.874Z,74.85
2023-01-26T10:28:36.717Z,66.40
2023-01-26T10:31:05.572Z,76.63
2023-01-26T10:33:36.625Z,68.10
2023-01-26T10:38:33.785Z,59.42
2023-01-26T10:41:05.614Z,71.35
2023-01-26T10:43:37.815Z,59.85
2023-01-26T10:46:04.971Z,75.38
2023-01-26T10:48:32.089Z,65.28
2023-01-26T10:51:15.841Z,68.03
2023-01-26T10:53:42.360Z,75.00
2023-01-26T10:56:17.133Z,72.68
2023-01-26T10:58:46.693Z,69.00
2023-01-26T11:01:16.475Z,66.10
2023-01-26T11:04:07.280Z,73.35
2023-01-26T11:06:34.289Z,69.25
2023-01-26T11:09:14.188Z,58.95
2023-01-26T11:11:43.421Z,70.57
2023-01-26T11:14:18.561Z,79.63
2023-01-26T11:16:56.085Z,74.18
2023-01-26T11:19:22.478Z,66.03
2023-01-26T11:21:54.913Z,76.45
2023-01-26T11:24:50.656Z,69.65
2023-01-26T11:27:23.251Z,65.15
2023-01-26T11:30:01.380Z,62.88
2023-01-26T11:32:56.031Z,62.05
2023-01-26T11:35:22.488Z,65.75
2023-01-26T11:37:57.136Z,65.50
2023-01-26T11:40:44.849Z,59.70
2023-01-26T11:43:26.590Z,56.78
2023-01-26T11:46:19.465Z,55.67
2023-01-26T11:49:08.378Z,56.63
2023-01-26T11:51:49.011Z,59.28
2023-01-26T11:54:28.845Z,51.20
2023-01-26T11:57:13.849Z,60.28
2023-01-26T11:59:44.561Z,52.25
2023-01-26T12:02:20.323Z,51.28
2023-01-26T12:04:48.089Z,56.05
2023-01-26T12:07:29.098Z,55.78
2023-01-26T12:12:36.397Z,47.22
2023-01-26T12:15:10.655Z,41.72
2023-01-26T12:18:15.538Z,41.53
2023-01-26T12:20:55.093Z,45.20
2023-01-26T12:23:21.613Z,39.63
2023-01-26T12:25:52.795Z,41.15
2023-01-26T12:28:29.474Z,43.25
2023-01-26T12:31:14.490Z,41.67
2023-01-26T12:33:41.756Z,35.70
2023-01-26T12:36:42.519Z,39.70
2023-01-26T12:39:13.467Z,25.48
2023-01-26T12:44:42.995Z,37.33
2023-01-26T12:47:17.726Z,26.83
2023-01-26T12:49:54.720Z,30.10
2023-01-26T12:52:34.986Z,29.98
2023-01-26T12:55:32.624Z,27.85
2023-01-26T12:58:23.641Z,27.95
2023-01-26T13:03:24.590Z,24.67
2023-01-26T13:06:03.409Z,23.13
2023-01-26T13:08:33.035Z,26.02
2023-01-26T13:11:01.870Z,24.55
2023-01-26T13:13:29.923Z,25.20
2023-01-26T13:16:15.557Z,22.25
2023-01-26T13:18:53.562Z,25.17
2023-01-26T13:21:43.141Z,25.40
2023-01-26T13:24:18.831Z,24.05
2023-01-26T13:26:55.292Z,19.15
2023-01-26T13:29:34.009Z,26.33
2023-01-26T13:32:22.503Z,29.73
2023-01-26T13:34:57.444Z,24.42
2023-01-26T13:37:59.477Z,38.45
2023-01-26T13:40:32.298Z,35.72
2023-01-26T13:43:26.837Z,32.67
2023-01-26T13:46:03.234Z,36.22
2023-01-26T13:49:02.375Z,39.00
2023-01-26T13:51:31.030Z,43.55
2023-01-26T13:54:13.289Z,41.83
2023-01-26T13:57:00.060Z,83.78
2023-01-26T13:59:26.740Z,51.10
2023-01-26T14:01:56.030Z,39.47
2023-01-26T14:04:25.020Z,48.67
2023-01-26T14:06:56.467Z,43.28
2023-01-26T14:09:23.398Z,50.92
2023-01-26T14:11:57.409Z,62.55
2023-01-26T14:14:27.077Z,63.72
2023-01-26T14:16:53.916Z,81.53
2023-01-26T14:19:22.373Z,46.42
2023-01-26T14:22:02.433Z,71.30
2023-01-26T14:24:34.070Z,67.47
2023-01-26T14:27:02.698Z,59.15
2023-01-26T14:29:30.057Z,77.18
2023-01-26T14:31:58.881Z,80.43
2023-01-26T14:34:30.390Z,52.03
2023-01-26T14:37:14.259Z,54.63
2023-01-26T14:39:44.756Z,52.67
2023-01-26T14:42:15.880Z,47.17
2023-01-26T14:44:43.149Z,61.13
2023-01-26T14:47:12.560Z,40.42
2023-01-26T14:49:50.057Z,67.80
2023-01-26T14:52:28.056Z,61.30
2023-01-26T14:54:57.233Z,50.95
2023-01-26T14:57:25.861Z,52.38
2023-01-26T14:59:59.614Z,55.88
2023-01-26T15:02:47.180Z,48.20
2023-01-26T15:05:19.126Z,59.55
2023-01-26T15:08:00.339Z,49.67
2023-01-26T15:10:29.997Z,45.03
2023-01-26T15:13:16.679Z,60.63
2023-01-26T15:15:48.905Z,74.60
2023-01-26T15:18:19.840Z,56.85
2023-01-26T15:21:02.676Z,49.35
2023-01-26T15:23:34.355Z,70.40
2023-01-26T15:26:06.162Z,73.82
2023-01-26T15:28:33.432Z,52.60
2023-01-26T15:31:00.871Z,70.32
2023-01-26T15:33:41.019Z,61.58
2023-01-26T15:36:24.565Z,69.17
2023-01-26T15:38:59.810Z,79.55
2023-01-26T15:41:26.889Z,70.55
2023-01-26T15:43:53.375Z,62.22
2023-01-26T15:46:20.007Z,75.32
2023-01-26T15:48:46.938Z,72.18
2023-01-26T15:51:14.580Z,65.05
2023-01-26T15:53:41.738Z,66.78
2023-01-26T15:56:13.469Z,66.88
2023-01-26T15:58:40.783Z,67.00
2023-01-26T16:01:10.400Z,76.03
2023-01-26T16:03:36.974Z,64.88
2023-01-26T16:06:03.617Z,61.40
2023-01-26T16:08:30.107Z,78.72
2023-01-26T16:10:57.539Z,63.72
2023-01-26T16:13:24.000Z,80.07
2023-01-26T16:15:52.664Z,77.63
2023-01-26T16:18:20.058Z,58.97
2023-01-26T16:20:48.605Z,62.50
2023-01-26T16:23:18.058Z,72.15
2023-01-26T16:25:44.819Z,67.78
2023-01-26T16:28:11.302Z,75.65
2023-01-26T16:30:37.891Z,89.05
2023-01-26T16:33:04.630Z,81.82
2023-01-26T16:35:31.335Z,88.18
2023-01-26T16:37:57.894Z,96.55
2023-01-26T16:40:24.373Z,89.13
2023-01-26T16:42:52.508Z,94.47
2023-01-26T16:45:24.142Z,86.38
2023-01-26T16:47:54.060Z,99.50
2023-01-26T16:50:20.790Z,97.78
2023-01-26T16:52:47.246Z,127.47
2023-01-26T16:55:16.052Z,109.80
2023-01-26T16:57:43.858Z,119.05
2023-01-26T17:00:17.331Z,118.78
2023-01-26T17:02:46.878Z,114.43
2023-01-26T17:05:15.263Z,91.57
2023-01-26T17:07:44.714Z,103.55
2023-01-26T17:10:12.541Z,96.85
2023-01-26T17:12:39.084Z,96.45
2023-01-26T17:15:06.846Z,89.45
2023-01-26T17:17:33.777Z,93.40
2023-01-26T17:20:17.562Z,73.40
2023-01-26T17:22:45.099Z,92.38
2023-01-26T17:25:13.894Z,84.13
2023-01-26T17:30:10.504Z,97.63
2023-01-26T17:32:36.928Z,101.10
2023-01-26T17:35:03.718Z,90.68
2023-01-26T17:37:31.507Z,97.20
2023-01-26T17:39:58.300Z,90.22
2023-01-26T17:42:25.676Z,80.93
2023-01-26T17:44:52.290Z,103.60
2023-01-26T17:47:18.924Z,85.35
2023-01-26T17:49:45.436Z,118.72
2023-01-26T17:52:14.268Z,89.07
2023-01-26T17:54:41.076Z,94.13
2023-01-26T17:57:08.000Z,94.95
2023-01-26T17:59:34.686Z,89.78
2023-01-26T18:02:01.185Z,81.93
2023-01-26T18:04:28.491Z,86.82
2023-01-26T18:06:55.685Z,98.97
2023-01-26T18:09:22.200Z,107.50
2023-01-26T18:11:48.685Z,80.35
2023-01-26T18:14:15.129Z,86.05
2023-01-26T18:16:41.698Z,101.32
2023-01-26T18:19:08.238Z,107.25
2023-01-26T18:21:35.841Z,82.13
2023-01-26T18:24:04.314Z,88.53
2023-01-26T18:26:34.574Z,91.90
2023-01-26T18:29:01.284Z,86.22
2023-01-26T18:31:30.553Z,86.25
2023-01-26T18:33:58.846Z,95.22
2023-01-26T18:36:25.739Z,86.88
2023-01-26T18:38:55.806Z,90.13
2023-01-26T18:41:23.144Z,96.00
2023-01-26T18:43:51.020Z,82.63
2023-01-26T18:46:17.668Z,88.10
2023-01-26T18:48:44.277Z,91.75
2023-01-26T18:51:10.911Z,103.72
2023-01-26T18:53:38.965Z,98.57
2023-01-26T18:56:10.845Z,87.00
2023-01-26T18:58:38.235Z,97.88
2023-01-26T19:01:09.329Z,101.05
2023-01-26T19:03:36.783Z,102.53
2023-01-26T19:06:04.966Z,109.68
2023-01-26T19:08:31.744Z,94.82
2023-01-26T19:11:04.860Z,94.55
2023-01-26T19:13:31.336Z,91.82
2023-01-26T19:15:57.777Z,88.35
2023-01-26T19:18:24.432Z,90.97
2023-01-26T19:20:58.283Z,91.95
2023-01-26T19:23:25.513Z,81.95
2023-01-26T19:25:52.322Z,92.80
2023-01-26T19:28:20.096Z,91.20
2023-01-26T19:30:47.035Z,86.63
2023-01-26T19:33:25.742Z,85.28
2023-01-26T19:35:52.566Z,79.18
2023-01-26T19:38:19.389Z,85.43
2023-01-26T19:40:47.677Z,85.70
2023-01-26T19:43:15.131Z,80.82
2023-01-26T19:45:46.665Z,82.03
2023-01-26T19:48:13.194Z,94.00
2023-01-26T19:50:41.357Z,93.90
2023-01-26T19:53:07.888Z,75.97
2023-01-26T19:55:34.739Z,81.55
2023-01-26T19:58:01.263Z,79.13
2023-01-26T20:00:27.769Z,79.82
2023-01-26T20:02:54.262Z,79.22
2023-01-26T20:05:20.727Z,84.85
2023-01-26T20:07:47.153Z,78.25
2023-01-26T20:10:13.744Z,87.10
2023-01-26T20:12:40.170Z,83.60
2023-01-26T20:15:08.506Z,62.55
2023-01-26T20:17:35.536Z,70.72
2023-01-26T20:20:02.421Z,61.92
2023-01-26T20:22:33.482Z,67.32
2023-01-26T20:25:00.667Z,63.92
2023-01-26T20:27:28.100Z,67.40
2023-01-26T20:29:54.590Z,63.33
2023-01-26T20:32:21.014Z,67.43
2023-01-26T20:34:47.953Z,53.88
2023-01-26T20:37:14.574Z,66.30
2023-01-26T20:39:41.034Z,70.00
2023-01-26T20:42:08.068Z,54.17
2023-01-26T20:44:34.641Z,56.67
2023-01-26T20:47:01.233Z,57.95
2023-01-26T20:49:33.603Z,44.85
2023-01-26T20:54:49.293Z,42.55
2023-01-26T20:57:23.679Z,53.83
2023-01-26T20:59:54.766Z,40.53
2023-01-26T21:02:33.607Z,43.88
2023-01-26T21:05:02.281Z,42.72
2023-01-26T21:07:36.957Z,43.38
2023-01-26T21:10:08.611Z,45.97
2023-01-26T21:12:39.933Z,39.90
2023-01-26T21:15:10.527Z,29.67
2023-01-26T21:20:38.298Z,39.42
2023-01-26T21:23:07.571Z,30.58
2023-01-26T21:25:41.647Z,39.08
2023-01-26T21:28:10.184Z,29.30
2023-01-26T21:30:46.297Z,23.30
2023-01-26T21:33:14.235Z,17.73
2023-01-26T21:35:42.949Z,25.55
2023-01-26T21:38:12.547Z,26.95
2023-01-26T21:40:49.294Z,24.33
2023-01-26T21:43:19.416Z,23.70
2023-01-26T21:45:54.901Z,19.48
2023-01-26T21:48:37.727Z,20.17
2023-01-26T21:51:30.053Z,13.38
2023-01-26T21:54:01.768Z,18.42
2023-01-26T21:56:29.343Z,15.27
2023-01-26T21:59:05.921Z,12.27
2023-01-26T22:01:59.378Z,10.50
2023-01-26T22:04:46.181Z,14.20
2023-01-26T22:07:18.730Z,12.23
2023-01-26T22:09:47.118Z,8.50
2023-01-26T22:12:15.362Z,9.05
2023-01-26T22:14:42.450Z,11.88
2023-01-26T22:17:12.007Z,7.45
2023-01-26T22:19:43.432Z,11.35
2023-01-26T22:22:11.001Z,7.88
2023-01-26T22:24:43.550Z,10.05
2023-01-26T22:27:16.504Z,7.68
2023-01-26T22:29:45.385Z,10.52
2023-01-26T22:35:20.606Z,9.68
2023-01-26T22:37:47.248Z,10.70
2023-01-26T22:40:15.147Z,9.52
2023-01-26T22:42:44.765Z,8.23
2023-01-26T22:45:11.982Z,9.93
2023-01-26T22:47:40.224Z,7.28
2023-01-26T22:50:08.014Z,12.75
2023-01-26T22:52:34.538Z,9.27
2023-01-26T22:55:01.017Z,15.30
2023-01-26T22:57:27.422Z,7.95
2023-01-26T22:59:53.926Z,15.82
2023-01-26T23:02:21.111Z,11.13
2023-01-26T23:04:47.585Z,10.68
2023-01-26T23:07:14.138Z,10.75
2023-01-26T23:09:40.848Z,10.35
2023-01-26T23:12:07.519Z,11.23
2023-01-26T23:14:34.599Z,12.43
2023-01-26T23:17:01.055Z,15.70
2023-01-26T23:19:27.727Z,8.68
2023-01-26T23:21:54.269Z,11.32
2023-01-26T23:24:22.233Z,11.90
2023-01-26T23:26:48.828Z,10.23
2023-01-26T23:29:15.366Z,10.70
2023-01-26T23:31:42.046Z,8.88
2023-01-26T23:34:08.485Z,11.50
2023-01-26T23:36:35.126Z,13.15
2023-01-26T23:39:01.657Z,8.27
2023-01-26T23:41:28.155Z,14.63
2023-01-26T23:43:54.608Z,12.88
2023-01-26T23:46:21.088Z,13.23
2023-01-26T23:48:47.639Z,13.98
2023-01-26T23:51:14.280Z,12.45
2023-01-26T23:53:40.848Z,12.43
2023-01-26T23:56:13.992Z,16.83
2023-01-26T23:58:41.277Z,15.80
